createdAt,value
2019-03-22T00:01:45.692Z,99.50
2019-03-22T00:04:18.856Z,102.47
2019-03-22T00:06:52.279Z,99.37
2019-03-22T00:09:26.159Z,101.40
2019-03-22T00:11:59.259Z,96.97
2019-03-22T00:14:32.835Z,101.55
2019-03-22T00:17:05.621Z,104.17
2019-03-22T00:19:39.648Z,105.63
2019-03-22T00:22:12.357Z,106.87
2019-03-22T00:24:45.309Z,101.65
2019-03-22T00:27:18.910Z,110.05
2019-03-22T00:29:53.515Z,107.17
2019-03-22T00:32:26.209Z,106.70
2019-03-22T00:34:59.255Z,107.93
2019-03-22T00:37:31.908Z,112.12
2019-03-22T00:40:05.586Z,107.33
2019-03-22T00:42:38.502Z,119.60
2019-03-22T00:45:12.370Z,105.83
2019-03-22T00:47:47.751Z,108.00
2019-03-22T00:50:20.408Z,106.30
2019-03-22T00:52:52.800Z,112.67
2019-03-22T00:55:25.037Z,112.00
2019-03-22T00:57:57.994Z,115.27
2019-03-22T01:00:40.800Z,114.10
2019-03-22T01:03:14.824Z,107.10
2019-03-22T01:05:47.023Z,113.33
2019-03-22T01:08:20.659Z,113.37
2019-03-22T01:10:52.887Z,114.40
2019-03-22T01:13:25.152Z,105.80
2019-03-22T01:15:58.512Z,110.00
2019-03-22T01:18:31.188Z,108.83
2019-03-22T01:21:03.998Z,109.55
2019-03-22T01:23:37.034Z,103.43
2019-03-22T01:26:09.620Z,105.33
2019-03-22T01:28:42.182Z,107.50
2019-03-22T01:31:14.500Z,110.33
2019-03-22T01:33:47.669Z,108.13
2019-03-22T01:36:21.193Z,105.20
2019-03-22T01:38:54.035Z,104.37
2019-03-22T01:41:27.087Z,111.20
2019-03-22T01:43:59.431Z,112.03
2019-03-22T01:46:32.138Z,107.13
2019-03-22T01:49:04.743Z,111.27
2019-03-22T01:51:37.305Z,112.73
2019-03-22T01:54:09.695Z,109.10
2019-03-22T01:56:41.971Z,116.77
2019-03-22T01:59:14.569Z,108.73
2019-03-22T02:01:47.028Z,102.33
2019-03-22T02:04:21.470Z,106.00
2019-03-22T02:06:53.697Z,108.30
2019-03-22T02:09:26.103Z,102.83
2019-03-22T02:11:58.354Z,103.53
2019-03-22T02:14:31.724Z,100.13
2019-03-22T02:17:04.193Z,99.37
2019-03-22T02:19:36.641Z,100.63
2019-03-22T02:22:09.066Z,102.53
2019-03-22T02:24:41.347Z,102.10
2019-03-22T02:27:14.954Z,99.40
2019-03-22T02:29:47.391Z,102.27
2019-03-22T02:32:19.838Z,104.32
2019-03-22T02:34:52.438Z,106.07
2019-03-22T02:37:26.484Z,102.77
2019-03-22T02:39:58.963Z,100.77
2019-03-22T02:42:31.361Z,103.30
2019-03-22T02:45:04.033Z,93.43
2019-03-22T02:47:36.961Z,94.47
2019-03-22T02:50:17.989Z,94.37
2019-03-22T02:52:45.531Z,91.77
2019-03-22T02:55:18.237Z,97.27
2019-03-22T02:57:50.957Z,99.05
2019-03-22T03:00:23.570Z,91.42
2019-03-22T03:02:55.809Z,96.37
2019-03-22T03:05:28.123Z,94.20
2019-03-22T03:08:00.288Z,93.20
2019-03-22T03:10:34.540Z,95.93
2019-03-22T03:13:07.114Z,91.70
2019-03-22T03:15:39.301Z,83.20
2019-03-22T03:18:12.126Z,82.92
2019-03-22T03:20:44.674Z,86.77
2019-03-22T03:23:17.207Z,96.28
2019-03-22T03:25:49.616Z,94.43
2019-03-22T03:28:36.028Z,92.90
2019-03-22T03:30:58.700Z,95.17
2019-03-22T03:33:31.181Z,96.73
2019-03-22T03:36:03.498Z,88.57
2019-03-22T03:38:35.964Z,92.37
2019-03-22T03:41:08.570Z,88.03
2019-03-22T03:43:40.699Z,97.63
2019-03-22T03:46:13.017Z,98.20
2019-03-22T03:48:45.842Z,98.10
2019-03-22T03:51:18.038Z,95.03
2019-03-22T03:53:50.506Z,98.73
2019-03-22T03:56:23.043Z,96.55
2019-03-22T03:58:57.159Z,102.80
2019-03-22T04:01:29.592Z,95.23
2019-03-22T04:04:01.747Z,91.43
2019-03-22T04:06:34.059Z,79.23
2019-03-22T04:09:09.027Z,83.47
2019-03-22T04:11:41.599Z,81.00
2019-03-22T04:14:13.801Z,80.20
2019-03-22T04:16:45.994Z,74.73
2019-03-22T04:19:18.313Z,75.17
2019-03-22T04:21:50.835Z,73.77
2019-03-22T04:24:23.554Z,77.65
2019-03-22T04:26:56.122Z,70.63
2019-03-22T04:29:28.390Z,73.93
2019-03-22T04:32:00.744Z,65.63
2019-03-22T04:34:33.126Z,68.17
2019-03-22T04:37:05.436Z,62.63
2019-03-22T04:39:37.863Z,66.80
2019-03-22T04:42:10.596Z,63.33
2019-03-22T04:44:42.874Z,63.00
2019-03-22T04:47:18.629Z,67.57
2019-03-22T04:49:52.469Z,68.90
2019-03-22T04:52:30.610Z,69.80
2019-03-22T04:55:03.932Z,68.93
2019-03-22T04:57:38.135Z,70.87
2019-03-22T05:00:10.876Z,72.93
2019-03-22T05:02:43.189Z,70.83
2019-03-22T05:05:15.754Z,78.57
2019-03-22T05:07:48.550Z,81.93
2019-03-22T05:10:22.033Z,76.47
2019-03-22T05:12:56.603Z,72.80
2019-03-22T05:15:30.900Z,74.13
2019-03-22T05:18:06.450Z,78.73
2019-03-22T05:20:40.837Z,77.03
2019-03-22T05:23:18.069Z,78.90
2019-03-22T05:25:52.409Z,80.13
2019-03-22T05:28:26.395Z,81.83
2019-03-22T05:31:25.547Z,79.60
2019-03-22T05:33:58.332Z,78.70
2019-03-22T05:36:31.695Z,79.17
2019-03-22T05:39:05.416Z,83.43
2019-03-22T05:41:39.131Z,78.43
2019-03-22T05:44:11.548Z,82.42
2019-03-22T05:46:44.671Z,81.63
2019-03-22T05:49:18.198Z,81.97
2019-03-22T05:51:50.646Z,84.47
2019-03-22T05:54:22.781Z,85.93
2019-03-22T05:56:56.951Z,84.53
2019-03-22T05:59:29.147Z,80.93
2019-03-22T06:02:01.812Z,84.30
2019-03-22T06:04:34.362Z,85.45
2019-03-22T06:07:06.684Z,87.00
2019-03-22T06:09:43.860Z,82.67
2019-03-22T06:12:16.132Z,83.87
2019-03-22T06:14:48.672Z,88.83
2019-03-22T06:17:21.122Z,88.80
2019-03-22T06:19:53.433Z,89.07
2019-03-22T06:22:25.752Z,85.07
2019-03-22T06:24:58.416Z,86.63
2019-03-22T06:27:30.914Z,89.20
2019-03-22T06:30:03.270Z,91.60
2019-03-22T06:32:35.689Z,86.90
2019-03-22T06:35:09.551Z,85.17
2019-03-22T06:37:42.344Z,81.03
2019-03-22T06:40:14.960Z,84.90
2019-03-22T06:42:47.794Z,84.70
2019-03-22T06:45:21.081Z,81.70
2019-03-22T06:47:53.394Z,79.00
2019-03-22T06:50:25.778Z,75.97
2019-03-22T06:52:57.923Z,77.00
2019-03-22T06:55:30.254Z,76.67
2019-03-22T06:58:04.378Z,78.17
2019-03-22T07:00:36.816Z,79.57
2019-03-22T07:03:09.204Z,83.93
2019-03-22T07:05:41.560Z,78.40
2019-03-22T07:08:15.060Z,79.15
2019-03-22T07:10:47.423Z,77.00
2019-03-22T07:13:19.666Z,78.93
2019-03-22T07:15:52.096Z,83.97
2019-03-22T07:18:24.434Z,78.93
2019-03-22T07:20:57.305Z,77.10
2019-03-22T07:23:29.423Z,79.87
2019-03-22T07:26:01.732Z,75.97
2019-03-22T07:28:33.967Z,76.97
2019-03-22T07:31:07.112Z,82.47
2019-03-22T07:33:40.532Z,72.00
2019-03-22T07:36:12.938Z,75.20
2019-03-22T07:38:45.459Z,77.43
2019-03-22T07:41:18.751Z,80.70
2019-03-22T07:43:51.276Z,85.17
2019-03-22T07:46:23.593Z,79.23
2019-03-22T07:48:55.998Z,85.27
2019-03-22T07:51:28.259Z,83.50
2019-03-22T07:54:00.481Z,81.40
2019-03-22T07:56:32.675Z,86.27
2019-03-22T07:59:04.813Z,75.77
2019-03-22T08:01:37.067Z,80.37
2019-03-22T08:04:09.546Z,74.33
2019-03-22T08:06:41.722Z,73.47
2019-03-22T08:09:13.895Z,77.20
2019-03-22T08:11:46.353Z,74.43
2019-03-22T08:14:18.613Z,78.47
2019-03-22T08:16:50.792Z,74.37
2019-03-22T08:19:23.671Z,74.15
2019-03-22T08:21:55.897Z,79.40
2019-03-22T08:24:28.099Z,74.17
2019-03-22T08:27:00.346Z,81.63
2019-03-22T08:29:33.060Z,68.85
2019-03-22T08:32:07.008Z,70.57
2019-03-22T08:34:39.352Z,80.40
2019-03-22T08:37:12.579Z,70.28
2019-03-22T08:39:46.319Z,73.87
2019-03-22T08:42:18.856Z,68.53
2019-03-22T08:44:51.123Z,71.97
2019-03-22T08:47:33.714Z,75.00
2019-03-22T08:50:00.446Z,68.50
2019-03-22T08:52:32.775Z,68.13
2019-03-22T08:55:05.857Z,70.07
2019-03-22T08:57:38.017Z,65.97
2019-03-22T09:00:11.060Z,65.10
2019-03-22T09:02:43.485Z,61.75
2019-03-22T09:05:16.115Z,65.27
2019-03-22T09:07:48.508Z,50.78
2019-03-22T09:10:20.974Z,53.07
2019-03-22T09:12:54.203Z,48.57
2019-03-22T09:15:26.456Z,40.40
2019-03-22T09:18:00.361Z,41.37
2019-03-22T09:20:32.673Z,42.20
2019-03-22T09:23:05.376Z,42.27
2019-03-22T09:25:38.168Z,42.63
2019-03-22T09:28:10.761Z,38.80
2019-03-22T09:30:43.316Z,39.10
2019-03-22T09:33:17.321Z,34.08
2019-03-22T09:35:49.541Z,39.37
2019-03-22T09:38:21.788Z,36.77
2019-03-22T09:40:54.766Z,36.70
2019-03-22T09:43:27.026Z,39.73
2019-03-22T09:46:05.852Z,36.70
2019-03-22T09:48:38.517Z,38.67
2019-03-22T09:51:11.315Z,32.97
2019-03-22T09:53:43.752Z,33.87
2019-03-22T09:56:16.212Z,32.93
2019-03-22T09:58:48.502Z,33.73
2019-03-22T10:01:23.957Z,34.83
2019-03-22T10:03:54.713Z,36.57
2019-03-22T10:06:27.012Z,37.23
2019-03-22T10:09:05.090Z,28.20
2019-03-22T10:11:36.703Z,27.97
2019-03-22T10:14:09.106Z,30.57
2019-03-22T10:16:41.901Z,29.33
2019-03-22T10:19:14.494Z,32.17
2019-03-22T10:21:47.710Z,99.03
2019-03-22T10:24:20.042Z,32.83
2019-03-22T10:26:52.362Z,29.60
2019-03-22T10:29:24.893Z,35.05
2019-03-22T10:31:57.107Z,34.00
2019-03-22T10:34:29.375Z,34.10
2019-03-22T10:37:01.909Z,37.63
2019-03-22T10:39:34.487Z,37.07
2019-03-22T10:42:06.802Z,32.70
2019-03-22T10:44:39.514Z,32.90
2019-03-22T10:47:13.308Z,32.40
2019-03-22T10:49:45.984Z,34.93
2019-03-22T10:52:18.695Z,32.05
2019-03-22T10:54:50.920Z,33.70
2019-03-22T10:57:24.387Z,30.50
2019-03-22T10:59:57.562Z,32.10
2019-03-22T11:02:29.953Z,30.63
2019-03-22T11:05:02.519Z,28.40
2019-03-22T11:07:35.472Z,28.27
2019-03-22T11:10:11.169Z,26.73
2019-03-22T11:12:44.581Z,28.83
2019-03-22T11:15:17.372Z,28.27
2019-03-22T11:17:50.518Z,27.27
2019-03-22T11:20:24.462Z,28.12
2019-03-22T11:22:56.695Z,28.37
2019-03-22T11:25:29.717Z,36.93
2019-03-22T11:28:02.014Z,28.53
2019-03-22T11:30:34.865Z,30.27
2019-03-22T11:33:07.455Z,28.37
2019-03-22T11:35:40.177Z,23.03
2019-03-22T11:38:12.729Z,24.47
2019-03-22T11:40:46.995Z,23.97
2019-03-22T11:43:19.579Z,23.37
2019-03-22T11:45:52.126Z,22.63
2019-03-22T11:48:24.583Z,28.03
2019-03-22T11:50:57.490Z,22.50
2019-03-22T11:53:29.838Z,20.87
2019-03-22T11:56:02.476Z,22.10
2019-03-22T11:58:37.135Z,21.80
2019-03-22T12:01:19.146Z,30.50
2019-03-22T12:03:45.076Z,34.60
2019-03-22T12:06:18.285Z,39.23
2019-03-22T12:08:51.714Z,36.63
2019-03-22T12:11:24.171Z,38.05
2019-03-22T12:13:57.383Z,44.30
2019-03-22T12:16:29.793Z,40.17
2019-03-22T12:19:01.963Z,39.20
2019-03-22T12:21:35.968Z,38.90
2019-03-22T12:24:08.605Z,38.87
2019-03-22T12:26:41.007Z,36.07
2019-03-22T12:29:13.455Z,33.33
2019-03-22T12:31:48.495Z,38.63
2019-03-22T12:34:21.993Z,33.10
2019-03-22T12:36:55.982Z,42.00
2019-03-22T12:39:29.323Z,40.60
2019-03-22T12:42:02.365Z,42.53
2019-03-22T12:44:34.920Z,38.63
2019-03-22T12:47:07.755Z,40.40
2019-03-22T12:49:40.347Z,37.83
2019-03-22T12:52:15.302Z,38.43
2019-03-22T12:54:47.961Z,38.57
2019-03-22T12:57:20.616Z,35.37
2019-03-22T12:59:53.375Z,32.83
2019-03-22T13:02:26.120Z,29.93
2019-03-22T13:05:00.058Z,30.30
2019-03-22T13:07:33.047Z,29.70
2019-03-22T13:10:07.955Z,35.50
2019-03-22T13:12:40.787Z,30.50
2019-03-22T13:15:13.843Z,30.73
2019-03-22T13:17:47.135Z,31.37
2019-03-22T13:20:19.664Z,31.35
2019-03-22T13:22:53.480Z,35.03
2019-03-22T13:25:26.248Z,31.40
2019-03-22T13:27:58.579Z,32.37
2019-03-22T13:30:36.311Z,31.63
2019-03-22T13:33:09.764Z,32.63
2019-03-22T13:35:43.621Z,35.97
2019-03-22T13:38:16.096Z,38.30
2019-03-22T13:40:48.408Z,35.03
2019-03-22T13:43:20.856Z,37.83
2019-03-22T13:45:54.081Z,36.60
2019-03-22T13:48:26.399Z,35.53
2019-03-22T13:50:58.680Z,44.10
2019-03-22T13:53:30.896Z,40.60
2019-03-22T13:56:03.217Z,29.80
2019-03-22T13:58:36.442Z,31.17
2019-03-22T14:01:08.974Z,48.60
2019-03-22T14:03:42.309Z,54.40
2019-03-22T14:06:14.661Z,52.80
2019-03-22T14:08:47.277Z,55.03
2019-03-22T14:11:19.701Z,54.80
2019-03-22T14:13:53.500Z,55.27
2019-03-22T14:16:26.122Z,54.87
2019-03-22T14:19:00.071Z,57.90
2019-03-22T14:21:33.632Z,58.57
2019-03-22T14:24:07.498Z,54.70
2019-03-22T14:26:39.857Z,54.27
2019-03-22T14:29:12.234Z,53.63
2019-03-22T14:31:44.719Z,60.23
2019-03-22T14:34:17.316Z,51.40
2019-03-22T14:36:50.501Z,55.53
2019-03-22T14:39:23.608Z,47.98
2019-03-22T14:41:56.033Z,49.50
2019-03-22T14:44:28.432Z,44.60
2019-03-22T14:47:00.800Z,47.07
2019-03-22T14:49:39.013Z,38.23
2019-03-22T14:52:12.394Z,36.73
2019-03-22T14:54:44.850Z,33.70
2019-03-22T14:57:17.547Z,29.60
2019-03-22T14:59:58.855Z,31.67
2019-03-22T15:02:25.702Z,29.50
2019-03-22T15:04:57.982Z,33.23
2019-03-22T15:07:30.289Z,31.23
2019-03-22T15:10:02.576Z,35.37
2019-03-22T15:12:34.740Z,31.27
2019-03-22T15:15:29.970Z,32.37
2019-03-22T15:18:11.807Z,35.77
2019-03-22T15:20:58.048Z,33.40
2019-03-22T15:23:50.006Z,36.00
2019-03-22T15:26:59.805Z,34.88
2019-03-22T15:29:59.659Z,41.13
2019-03-22T15:33:08.884Z,36.17
2019-03-22T15:36:06.470Z,38.40
2019-03-22T15:38:59.829Z,37.03
2019-03-22T15:41:33.108Z,40.60
2019-03-22T15:44:05.411Z,39.93
2019-03-22T15:46:38.024Z,32.23
2019-03-22T15:49:10.524Z,32.33
2019-03-22T15:51:43.055Z,32.57
2019-03-22T15:54:15.928Z,26.53
2019-03-22T15:56:48.991Z,19.30
2019-03-22T15:59:21.737Z,19.40
2019-03-22T16:01:53.919Z,20.07
2019-03-22T16:04:26.284Z,22.60
2019-03-22T16:06:58.474Z,22.80
2019-03-22T16:09:31.137Z,22.90
2019-03-22T16:12:03.518Z,21.90
2019-03-22T16:14:35.704Z,19.00
2019-03-22T16:17:08.027Z,21.33
2019-03-22T16:19:40.412Z,20.77
2019-03-22T16:22:12.953Z,20.80
2019-03-22T16:24:45.072Z,22.40
2019-03-22T16:27:17.329Z,21.67
2019-03-22T16:29:49.649Z,22.07
2019-03-22T16:32:21.847Z,22.60
2019-03-22T16:34:53.998Z,34.50
2019-03-22T16:37:26.166Z,44.13
2019-03-22T16:39:58.290Z,26.97
2019-03-22T16:42:30.488Z,29.33
2019-03-22T16:45:03.748Z,32.67
2019-03-22T16:47:36.425Z,27.47
2019-03-22T16:50:23.459Z,56.00
2019-03-22T16:52:55.665Z,48.63
2019-03-22T16:55:28.225Z,31.33
2019-03-22T16:58:00.605Z,34.40
2019-03-22T17:00:33.007Z,42.63
2019-03-22T17:03:07.927Z,59.67
2019-03-22T17:05:40.217Z,50.87
2019-03-22T17:08:13.938Z,57.07
2019-03-22T17:10:46.199Z,66.60
2019-03-22T17:13:18.542Z,63.63
2019-03-22T17:15:50.799Z,60.63
2019-03-22T17:18:23.579Z,58.20
2019-03-22T17:20:56.028Z,61.13
2019-03-22T17:23:28.408Z,69.57
2019-03-22T17:26:01.868Z,64.57
2019-03-22T17:28:34.326Z,66.53
2019-03-22T17:31:06.693Z,58.83
2019-03-22T17:33:38.909Z,65.80
2019-03-22T17:36:11.130Z,70.27
2019-03-22T17:38:43.651Z,69.07
2019-03-22T17:41:16.075Z,77.13
2019-03-22T17:43:48.280Z,60.77
2019-03-22T17:46:20.703Z,61.10
2019-03-22T17:48:52.906Z,70.43
2019-03-22T17:51:25.454Z,85.13
2019-03-22T17:53:57.781Z,83.57
2019-03-22T17:56:30.359Z,77.07
2019-03-22T17:59:02.877Z,72.73
2019-03-22T18:01:36.226Z,63.93
2019-03-22T18:04:08.792Z,64.97
2019-03-22T18:06:40.971Z,57.87
2019-03-22T18:09:13.198Z,56.83
2019-03-22T18:11:45.414Z,60.67
2019-03-22T18:14:17.750Z,59.38
2019-03-22T18:16:50.031Z,60.23
2019-03-22T18:19:24.562Z,58.13
2019-03-22T18:21:56.726Z,62.87
2019-03-22T18:24:29.128Z,58.33
2019-03-22T18:27:01.611Z,62.00
2019-03-22T18:29:33.850Z,67.67
2019-03-22T18:32:06.753Z,69.47
2019-03-22T18:34:38.948Z,62.67
2019-03-22T18:37:11.249Z,68.97
2019-03-22T18:39:43.464Z,63.97
2019-03-22T18:42:16.764Z,69.90
2019-03-22T18:44:49.113Z,61.57
2019-03-22T18:47:21.487Z,64.37
2019-03-22T18:49:53.766Z,66.87
2019-03-22T18:52:25.915Z,62.50
2019-03-22T18:54:58.280Z,64.57
2019-03-22T18:57:30.637Z,68.50
2019-03-22T19:00:05.421Z,69.63
2019-03-22T19:02:37.768Z,66.43
2019-03-22T19:05:10.323Z,72.57
2019-03-22T19:07:42.710Z,70.32
2019-03-22T19:10:17.758Z,73.97
2019-03-22T19:12:50.031Z,75.90
2019-03-22T19:15:22.334Z,78.23
2019-03-22T19:17:54.923Z,68.77
2019-03-22T19:20:27.366Z,73.57
2019-03-22T19:22:59.498Z,67.23
2019-03-22T19:25:31.841Z,76.67
2019-03-22T19:28:03.950Z,66.43
2019-03-22T19:30:36.546Z,72.93
2019-03-22T19:33:09.928Z,79.80
2019-03-22T19:35:42.274Z,80.57
2019-03-22T19:38:16.763Z,89.15
2019-03-22T19:40:49.143Z,89.63
2019-03-22T19:43:21.513Z,72.13
2019-03-22T19:45:53.691Z,95.50
2019-03-22T19:48:25.888Z,92.77
2019-03-22T19:50:58.192Z,103.33
2019-03-22T19:53:30.549Z,120.37
2019-03-22T19:56:03.707Z,112.30
2019-03-22T19:58:37.910Z,113.83
2019-03-22T20:01:10.200Z,106.27
2019-03-22T20:03:42.936Z,116.60
2019-03-22T20:06:15.815Z,138.68
2019-03-22T20:08:48.444Z,102.30
2019-03-22T20:11:21.024Z,94.58
2019-03-22T20:13:53.514Z,113.70
2019-03-22T20:16:25.956Z,123.13
2019-03-22T20:18:58.643Z,91.93
2019-03-22T20:21:31.246Z,94.70
2019-03-22T20:24:04.139Z,112.73
2019-03-22T20:26:36.806Z,106.80
2019-03-22T20:29:09.882Z,120.23
2019-03-22T20:31:42.113Z,104.70
2019-03-22T20:34:14.521Z,107.72
2019-03-22T20:36:47.193Z,107.13
2019-03-22T20:39:19.953Z,119.53
2019-03-22T20:41:52.453Z,124.27
2019-03-22T20:44:33.540Z,124.37
2019-03-22T20:46:58.975Z,125.40
2019-03-22T20:49:31.708Z,122.80
2019-03-22T20:52:04.615Z,113.60
2019-03-22T20:54:37.889Z,117.40
2019-03-22T20:57:11.127Z,101.57
2019-03-22T20:59:43.371Z,111.73
2019-03-22T21:02:16.044Z,114.90
2019-03-22T21:04:49.254Z,123.57
2019-03-22T21:07:21.818Z,102.82
2019-03-22T21:09:54.251Z,115.47
2019-03-22T21:12:26.803Z,91.40
2019-03-22T21:14:59.261Z,96.80
2019-03-22T21:17:31.487Z,99.83
2019-03-22T21:20:03.911Z,101.43
2019-03-22T21:22:36.434Z,100.90
2019-03-22T21:25:09.978Z,99.43
2019-03-22T21:27:42.292Z,105.52
2019-03-22T21:30:15.056Z,103.10
2019-03-22T21:32:47.331Z,117.23
2019-03-22T21:35:22.893Z,111.60
2019-03-22T21:37:54.142Z,110.63
2019-03-22T21:40:26.755Z,105.77
2019-03-22T21:42:59.101Z,107.73
2019-03-22T21:45:31.785Z,101.70
2019-03-22T21:48:04.180Z,97.87
2019-03-22T21:50:36.904Z,92.13
2019-03-22T21:53:11.484Z,85.77
2019-03-22T21:55:43.895Z,90.03
2019-03-22T21:58:16.318Z,98.23
2019-03-22T22:00:49.900Z,103.13
2019-03-22T22:03:22.554Z,116.90
2019-03-22T22:05:55.014Z,106.23
2019-03-22T22:08:27.336Z,107.77
2019-03-22T22:11:00.307Z,108.10
2019-03-22T22:13:33.786Z,104.33
2019-03-22T22:16:07.381Z,99.47
2019-03-22T22:18:39.880Z,103.70
2019-03-22T22:21:13.069Z,99.50
2019-03-22T22:23:45.828Z,92.67
2019-03-22T22:26:18.430Z,93.67
2019-03-22T22:28:51.350Z,86.10
2019-03-22T22:31:23.799Z,91.97
2019-03-22T22:33:56.635Z,85.67
2019-03-22T22:36:28.985Z,76.67
2019-03-22T22:39:03.221Z,85.20
2019-03-22T22:41:37.455Z,85.50
2019-03-22T22:44:10.226Z,91.07
2019-03-22T22:46:43.005Z,95.83
2019-03-22T22:49:15.447Z,101.65
2019-03-22T22:51:48.403Z,101.53
2019-03-22T22:54:20.729Z,97.70
2019-03-22T22:56:53.040Z,102.37
2019-03-22T22:59:25.548Z,91.47
2019-03-22T23:01:58.036Z,99.47
2019-03-22T23:04:32.230Z,101.50
2019-03-22T23:07:04.692Z,105.13
2019-03-22T23:09:37.262Z,86.93
2019-03-22T23:12:09.924Z,91.77
2019-03-22T23:14:42.311Z,91.70
2019-03-22T23:17:14.622Z,93.73
2019-03-22T23:19:51.050Z,89.33
2019-03-22T23:22:23.678Z,88.72
2019-03-22T23:24:56.088Z,92.67
2019-03-22T23:27:28.505Z,88.17
2019-03-22T23:30:01.524Z,95.07
2019-03-22T23:32:33.907Z,98.60
2019-03-22T23:35:07.389Z,91.75
2019-03-22T23:37:40.232Z,101.97
2019-03-22T23:40:12.886Z,107.43
2019-03-22T23:42:45.032Z,96.73
2019-03-22T23:45:17.358Z,93.07
2019-03-22T23:47:49.784Z,96.37
2019-03-22T23:50:22.175Z,83.20
2019-03-22T23:52:54.601Z,84.03
2019-03-22T23:55:28.775Z,86.10
2019-03-22T23:58:01.558Z,81.27
